Roslindale, Massachusetts
Current Conditions -  °F | °C
As of 1:53 PM on Sunday 23 Nov 2014 (Local Time) from KOWD Reporting Station
Clear Clear  
Wind Chill: 61°   Ceiling: Unl
Heat Index: 61°   Visibility: 10mi
Dew Point: 37°   Wind: 7mph
Humidity: 41%   Direction: 240°WSW
Pressure: 30.11"   Gusts: NA
Location:  42.28°N, 71.13°W
Report Text: KOWD 231853Z 24006KT 10SM CLR 16/03 A3011 RMK AO2 SLP194 T01610028
Loading
Personal Weather Stations






























Interactive Weather Map New forecast layout! Learn more

10-Day Weather Forecast

Advertisements
Track Severe Weather on mobile